sensor_id;sensor_type;location;lat;lon;timestamp;pressure;altitude;pressure_sealevel;temperature;humidity
37848;BME280;23688;33.130;-117.188;2023-03-14T00:00:17;99719.97;;;17.45;85.58
37848;BME280;23688;33.130;-117.188;2023-03-14T00:02:44;99726.94;;;17.41;83.53
37848;BME280;23688;33.130;-117.188;2023-03-14T00:05:12;99718.53;;;17.12;83.87
37848;BME280;23688;33.130;-117.188;2023-03-14T00:07:39;99738.69;;;17.16;85.15
37848;BME280;23688;33.130;-117.188;2023-03-14T00:10:12;99718.69;;;17.21;86.86
37848;BME280;23688;33.130;-117.188;2023-03-14T00:12:40;99733.84;;;17.38;82.95
37848;BME280;23688;33.130;-117.188;2023-03-14T00:15:07;99755.25;;;17.61;82.69
37848;BME280;23688;33.130;-117.188;2023-03-14T00:17:35;99741.84;;;17.44;83.82
37848;BME280;23688;33.130;-117.188;2023-03-14T00:20:03;99761.19;;;17.49;85.37
37848;BME280;23688;33.130;-117.188;2023-03-14T00:22:40;99746.34;;;17.52;82.97
37848;BME280;23688;33.130;-117.188;2023-03-14T00:25:09;99755.13;;;17.06;84.08
37848;BME280;23688;33.130;-117.188;2023-03-14T00:27:36;99761.47;;;16.75;85.85
37848;BME280;23688;33.130;-117.188;2023-03-14T00:30:03;99757.50;;;16.51;87.52
37848;BME280;23688;33.130;-117.188;2023-03-14T00:32:29;99751.38;;;16.52;88.59
37848;BME280;23688;33.130;-117.188;2023-03-14T00:34:56;99750.13;;;16.35;89.33
37848;BME280;23688;33.130;-117.188;2023-03-14T00:37:22;99747.63;;;16.41;89.96
37848;BME280;23688;33.130;-117.188;2023-03-14T00:39:50;99759.66;;;16.31;90.58
37848;BME280;23688;33.130;-117.188;2023-03-14T00:42:18;99752.31;;;16.16;91.35
37848;BME280;23688;33.130;-117.188;2023-03-14T00:44:44;99753.50;;;16.29;90.89
37848;BME280;23688;33.130;-117.188;2023-03-14T00:47:10;99767.16;;;16.14;92.76
37848;BME280;23688;33.130;-117.188;2023-03-14T00:49:37;99759.56;;;15.89;94.29
37848;BME280;23688;33.130;-117.188;2023-03-14T00:52:03;99760.31;;;15.84;95.29
37848;BME280;23688;33.130;-117.188;2023-03-14T00:54:30;99765.66;;;15.89;94.50
37848;BME280;23688;33.130;-117.188;2023-03-14T00:56:56;99783.25;;;15.27;97.02
37848;BME280;23688;33.130;-117.188;2023-03-14T00:59:22;99788.75;;;15.06;99.30
37848;BME280;23688;33.130;-117.188;2023-03-14T01:01:48;99786.16;;;14.75;100.00
37848;BME280;23688;33.130;-117.188;2023-03-14T01:04:15;99789.25;;;14.62;100.00
37848;BME280;23688;33.130;-117.188;2023-03-14T01:06:42;99792.75;;;14.35;100.00
37848;BME280;23688;33.130;-117.188;2023-03-14T01:09:09;99785.66;;;14.03;100.00
37848;BME280;23688;33.130;-117.188;2023-03-14T01:11:36;99789.06;;;13.75;100.00
37848;BME280;23688;33.130;-117.188;2023-03-14T01:14:03;99800.91;;;13.63;100.00
37848;BME280;23688;33.130;-117.188;2023-03-14T01:16:32;99794.81;;;13.64;100.00
37848;BME280;23688;33.130;-117.188;2023-03-14T01:18:59;99793.03;;;13.38;100.00
37848;BME280;23688;33.130;-117.188;2023-03-14T01:21:28;99798.50;;;13.21;100.00
37848;BME280;23688;33.130;-117.188;2023-03-14T01:23:56;99796.69;;;13.19;100.00
37848;BME280;23688;33.130;-117.188;2023-03-14T01:26:25;99800.03;;;13.15;100.00
37848;BME280;23688;33.130;-117.188;2023-03-14T01:28:55;99794.81;;;13.15;100.00
37848;BME280;23688;33.130;-117.188;2023-03-14T01:31:23;99786.94;;;13.13;100.00
37848;BME280;23688;33.130;-117.188;2023-03-14T01:33:50;99800.69;;;13.09;100.00
37848;BME280;23688;33.130;-117.188;2023-03-14T01:36:16;99792.38;;;12.95;100.00
37848;BME280;23688;33.130;-117.188;2023-03-14T01:38:43;99798.81;;;13.05;100.00
37848;BME280;23688;33.130;-117.188;2023-03-14T01:41:17;99799.59;;;13.26;100.00
37848;BME280;23688;33.130;-117.188;2023-03-14T01:43:45;99807.88;;;13.39;100.00
37848;BME280;23688;33.130;-117.188;2023-03-14T01:46:32;99812.16;;;13.37;100.00
37848;BME280;23688;33.130;-117.188;2023-03-14T01:54:13;99810.50;;;13.16;100.00
37848;BME280;23688;33.130;-117.188;2023-03-14T01:56:44;99806.31;;;12.96;100.00
37848;BME280;23688;33.130;-117.188;2023-03-14T01:59:12;99804.19;;;12.85;100.00
37848;BME280;23688;33.130;-117.188;2023-03-14T02:01:42;99821.31;;;12.79;100.00
37848;BME280;23688;33.130;-117.188;2023-03-14T02:04:10;99806.88;;;12.64;100.00
37848;BME280;23688;33.130;-117.188;2023-03-14T02:07:27;99814.03;;;12.48;100.00
37848;BME280;23688;33.130;-117.188;2023-03-14T02:09:58;99817.19;;;12.39;100.00
37848;BME280;23688;33.130;-117.188;2023-03-14T02:12:25;99798.50;;;12.51;100.00
37848;BME280;23688;33.130;-117.188;2023-03-14T02:14:52;99801.44;;;12.58;100.00
37848;BME280;23688;33.130;-117.188;2023-03-14T02:17:20;99809.25;;;12.82;100.00
37848;BME280;23688;33.130;-117.188;2023-03-14T02:20:12;99800.53;;;12.80;100.00
37848;BME280;23688;33.130;-117.188;2023-03-14T02:22:42;99805.28;;;12.92;100.00
37848;BME280;23688;33.130;-117.188;2023-03-14T02:25:14;99809.88;;;12.99;100.00
37848;BME280;23688;33.130;-117.188;2023-03-14T02:27:44;99804.75;;;13.01;100.00
37848;BME280;23688;33.130;-117.188;2023-03-14T02:30:22;99791.28;;;13.13;100.00
37848;BME280;23688;33.130;-117.188;2023-03-14T02:32:52;99798.94;;;13.32;100.00
37848;BME280;23688;33.130;-117.188;2023-03-14T02:35:35;99815.97;;;13.46;100.00
37848;BME280;23688;33.130;-117.188;2023-03-14T02:40:48;99799.84;;;13.58;100.00
37848;BME280;23688;33.130;-117.188;2023-03-14T02:43:15;99801.69;;;13.61;100.00
37848;BME280;23688;33.130;-117.188;2023-03-14T02:45:43;99820.34;;;13.47;100.00
37848;BME280;23688;33.130;-117.188;2023-03-14T02:48:16;99820.59;;;13.30;100.00
37848;BME280;23688;33.130;-117.188;2023-03-14T02:50:46;99831.13;;;13.33;100.00
37848;BME280;23688;33.130;-117.188;2023-03-14T02:53:17;99838.69;;;13.02;100.00
37848;BME280;23688;33.130;-117.188;2023-03-14T02:55:48;99812.78;;;12.60;100.00
37848;BME280;23688;33.130;-117.188;2023-03-14T02:58:15;99836.28;;;12.62;100.00
37848;BME280;23688;33.130;-117.188;2023-03-14T03:00:42;99856.44;;;12.66;100.00
37848;BME280;23688;33.130;-117.188;2023-03-14T03:03:08;99854.44;;;12.60;100.00
37848;BME280;23688;33.130;-117.188;2023-03-14T03:05:35;99841.13;;;12.53;100.00
37848;BME280;23688;33.130;-117.188;2023-03-14T03:08:02;99863.28;;;12.87;100.00
37848;BME280;23688;33.130;-117.188;2023-03-14T03:10:29;99842.50;;;12.88;100.00
37848;BME280;23688;33.130;-117.188;2023-03-14T03:12:55;99852.09;;;13.13;100.00
37848;BME280;23688;33.130;-117.188;2023-03-14T03:15:22;99861.34;;;13.27;100.00
37848;BME280;23688;33.130;-117.188;2023-03-14T03:17:49;99867.22;;;13.22;100.00
37848;BME280;23688;33.130;-117.188;2023-03-14T03:20:15;99866.69;;;13.31;100.00
37848;BME280;23688;33.130;-117.188;2023-03-14T03:22:41;99866.97;;;13.16;100.00
37848;BME280;23688;33.130;-117.188;2023-03-14T03:25:08;99858.81;;;13.29;100.00
37848;BME280;23688;33.130;-117.188;2023-03-14T03:27:36;99874.94;;;13.43;100.00
37848;BME280;23688;33.130;-117.188;2023-03-14T03:30:06;99870.66;;;13.45;100.00
37848;BME280;23688;33.130;-117.188;2023-03-14T03:32:33;99869.72;;;13.43;100.00
37848;BME280;23688;33.130;-117.188;2023-03-14T03:34:59;99861.63;;;13.35;100.00
37848;BME280;23688;33.130;-117.188;2023-03-14T03:37:25;99865.88;;;13.32;100.00
37848;BME280;23688;33.130;-117.188;2023-03-14T03:39:52;99875.00;;;13.44;100.00
37848;BME280;23688;33.130;-117.188;2023-03-14T03:42:19;99895.69;;;13.40;100.00
37848;BME280;23688;33.130;-117.188;2023-03-14T03:44:45;99888.25;;;13.26;100.00
37848;BME280;23688;33.130;-117.188;2023-03-14T03:47:13;99904.81;;;13.27;100.00
37848;BME280;23688;33.130;-117.188;2023-03-14T03:49:39;99898.69;;;13.26;100.00
37848;BME280;23688;33.130;-117.188;2023-03-14T03:52:05;99894.22;;;13.46;100.00
37848;BME280;23688;33.130;-117.188;2023-03-14T03:54:31;99891.88;;;13.54;100.00
37848;BME280;23688;33.130;-117.188;2023-03-14T03:56:58;99894.81;;;13.63;100.00
37848;BME280;23688;33.130;-117.188;2023-03-14T03:59:24;99900.41;;;13.74;100.00
37848;BME280;23688;33.130;-117.188;2023-03-14T04:01:50;99903.97;;;13.76;100.00
37848;BME280;23688;33.130;-117.188;2023-03-14T04:04:17;99910.84;;;13.74;100.00
37848;BME280;23688;33.130;-117.188;2023-03-14T04:06:43;99911.03;;;13.55;100.00
37848;BME280;23688;33.130;-117.188;2023-03-14T04:09:11;99903.44;;;13.61;100.00
37848;BME280;23688;33.130;-117.188;2023-03-14T04:11:37;99923.81;;;13.73;100.00
37848;BME280;23688;33.130;-117.188;2023-03-14T04:14:04;99925.22;;;13.63;100.00
37848;BME280;23688;33.130;-117.188;2023-03-14T04:16:33;99914.47;;;13.54;100.00
37848;BME280;23688;33.130;-117.188;2023-03-14T04:19:02;99911.19;;;13.59;100.00
37848;BME280;23688;33.130;-117.188;2023-03-14T04:21:29;99906.31;;;13.68;100.00
37848;BME280;23688;33.130;-117.188;2023-03-14T04:23:55;99921.50;;;13.80;100.00
37848;BME280;23688;33.130;-117.188;2023-03-14T04:26:21;99927.81;;;13.87;100.00
37848;BME280;23688;33.130;-117.188;2023-03-14T04:28:47;99919.94;;;13.85;100.00
37848;BME280;23688;33.130;-117.188;2023-03-14T04:31:16;99916.31;;;13.82;100.00
37848;BME280;23688;33.130;-117.188;2023-03-14T04:33:44;99929.59;;;13.88;100.00
37848;BME280;23688;33.130;-117.188;2023-03-14T04:36:11;99915.28;;;13.77;100.00
37848;BME280;23688;33.130;-117.188;2023-03-14T04:38:37;99936.59;;;13.89;100.00
37848;BME280;23688;33.130;-117.188;2023-03-14T04:41:04;99941.03;;;13.91;100.00
37848;BME280;23688;33.130;-117.188;2023-03-14T04:43:32;99946.31;;;13.93;100.00
37848;BME280;23688;33.130;-117.188;2023-03-14T04:45:59;99919.63;;;13.76;100.00
37848;BME280;23688;33.130;-117.188;2023-03-14T04:48:26;99940.31;;;13.72;100.00
37848;BME280;23688;33.130;-117.188;2023-03-14T04:50:53;99941.28;;;13.74;100.00
37848;BME280;23688;33.130;-117.188;2023-03-14T04:53:20;99941.44;;;13.78;100.00
37848;BME280;23688;33.130;-117.188;2023-03-14T04:55:56;99939.88;;;13.83;100.00
37848;BME280;23688;33.130;-117.188;2023-03-14T04:58:24;99941.59;;;13.83;100.00
37848;BME280;23688;33.130;-117.188;2023-03-14T05:00:51;99939.09;;;13.86;100.00
37848;BME280;23688;33.130;-117.188;2023-03-14T05:03:18;99943.63;;;13.91;100.00
37848;BME280;23688;33.130;-117.188;2023-03-14T05:05:46;99950.22;;;13.80;100.00
37848;BME280;23688;33.130;-117.188;2023-03-14T05:08:12;99948.66;;;13.85;100.00
37848;BME280;23688;33.130;-117.188;2023-03-14T05:10:39;99938.94;;;13.81;100.00
37848;BME280;23688;33.130;-117.188;2023-03-14T05:13:07;99939.09;;;13.86;100.00
37848;BME280;23688;33.130;-117.188;2023-03-14T05:15:34;99945.19;;;13.86;100.00
37848;BME280;23688;33.130;-117.188;2023-03-14T05:18:01;99919.53;;;13.75;100.00
37848;BME280;23688;33.130;-117.188;2023-03-14T05:20:27;99947.75;;;13.85;100.00
37848;BME280;23688;33.130;-117.188;2023-03-14T05:22:54;99931.88;;;13.79;100.00
37848;BME280;23688;33.130;-117.188;2023-03-14T05:25:20;99939.72;;;13.79;100.00
37848;BME280;23688;33.130;-117.188;2023-03-14T05:27:46;99918.34;;;13.65;100.00
37848;BME280;23688;33.130;-117.188;2023-03-14T05:30:14;99937.88;;;13.76;100.00
37848;BME280;23688;33.130;-117.188;2023-03-14T05:32:40;99935.19;;;13.75;100.00
37848;BME280;23688;33.130;-117.188;2023-03-14T05:35:07;99935.28;;;13.76;100.00
37848;BME280;23688;33.130;-117.188;2023-03-14T05:37:33;99919.22;;;13.65;100.00
37848;BME280;23688;33.130;-117.188;2023-03-14T05:40:00;99916.50;;;13.62;100.00
37848;BME280;23688;33.130;-117.188;2023-03-14T05:42:26;99926.13;;;13.63;100.00
37848;BME280;23688;33.130;-117.188;2023-03-14T05:44:55;99921.69;;;13.61;100.00
37848;BME280;23688;33.130;-117.188;2023-03-14T05:47:22;99907.28;;;13.48;100.00
37848;BME280;23688;33.130;-117.188;2023-03-14T05:49:48;99917.78;;;13.49;100.00
37848;BME280;23688;33.130;-117.188;2023-03-14T05:52:15;99935.44;;;13.57;100.00
37848;BME280;23688;33.130;-117.188;2023-03-14T05:54:41;99917.00;;;13.52;100.00
37848;BME280;23688;33.130;-117.188;2023-03-14T05:57:07;99922.50;;;13.60;100.00
37848;BME280;23688;33.130;-117.188;2023-03-14T05:59:34;99937.47;;;13.65;100.00
37848;BME280;23688;33.130;-117.188;2023-03-14T06:02:00;99923.34;;;13.59;100.00
37848;BME280;23688;33.130;-117.188;2023-03-14T06:04:26;99927.03;;;13.65;100.00
37848;BME280;23688;33.130;-117.188;2023-03-14T06:06:53;99938.50;;;13.69;100.00
37848;BME280;23688;33.130;-117.188;2023-03-14T06:09:19;99935.88;;;13.69;100.00
37848;BME280;23688;33.130;-117.188;2023-03-14T06:11:47;99940.38;;;13.73;100.00
37848;BME280;23688;33.130;-117.188;2023-03-14T06:14:13;99922.56;;;13.61;100.00
37848;BME280;23688;33.130;-117.188;2023-03-14T06:16:40;99923.28;;;13.57;100.00
37848;BME280;23688;33.130;-117.188;2023-03-14T06:19:06;99918.13;;;13.59;100.00
37848;BME280;23688;33.130;-117.188;2023-03-14T06:21:32;99924.34;;;13.62;100.00
37848;BME280;23688;33.130;-117.188;2023-03-14T06:24:02;99925.38;;;13.67;100.00
37848;BME280;23688;33.130;-117.188;2023-03-14T06:26:29;99924.50;;;13.67;100.00
37848;BME280;23688;33.130;-117.188;2023-03-14T06:28:55;99919.38;;;13.70;100.00
37848;BME280;23688;33.130;-117.188;2023-03-14T06:31:22;99923.78;;;13.71;100.00
37848;BME280;23688;33.130;-117.188;2023-03-14T06:33:48;99909.63;;;13.64;100.00
37848;BME280;23688;33.130;-117.188;2023-03-14T06:36:14;99906.06;;;13.62;100.00
37848;BME280;23688;33.130;-117.188;2023-03-14T06:38:41;99904.47;;;13.66;100.00
37848;BME280;23688;33.130;-117.188;2023-03-14T06:41:07;99897.53;;;13.66;100.00
37848;BME280;23688;33.130;-117.188;2023-03-14T06:43:34;99895.88;;;13.68;100.00
37848;BME280;23688;33.130;-117.188;2023-03-14T06:46:00;99886.31;;;13.69;100.00
37848;BME280;23688;33.130;-117.188;2023-03-14T06:48:26;99865.09;;;13.60;100.00
37848;BME280;23688;33.130;-117.188;2023-03-14T06:50:53;99883.59;;;13.66;100.00
37848;BME280;23688;33.130;-117.188;2023-03-14T06:53:19;99876.66;;;13.66;100.00
37848;BME280;23688;33.130;-117.188;2023-03-14T06:55:46;99888.03;;;13.68;100.00
37848;BME280;23688;33.130;-117.188;2023-03-14T06:58:12;99884.38;;;13.63;100.00
37848;BME280;23688;33.130;-117.188;2023-03-14T07:00:38;99887.44;;;13.52;100.00
37848;BME280;23688;33.130;-117.188;2023-03-14T07:03:05;99876.66;;;13.42;100.00
37848;BME280;23688;33.130;-117.188;2023-03-14T07:05:31;99877.66;;;13.46;100.00
37848;BME280;23688;33.130;-117.188;2023-03-14T07:07:58;99878.59;;;13.48;100.00
37848;BME280;23688;33.130;-117.188;2023-03-14T07:10:24;99869.53;;;13.37;100.00
37848;BME280;23688;33.130;-117.188;2023-03-14T07:12:50;99870.41;;;13.37;100.00
37848;BME280;23688;33.130;-117.188;2023-03-14T07:15:20;99870.59;;;13.43;100.00
37848;BME280;23688;33.130;-117.188;2023-03-14T07:17:47;99876.84;;;13.47;100.00
37848;BME280;23688;33.130;-117.188;2023-03-14T07:20:15;99870.06;;;13.52;100.00
37848;BME280;23688;33.130;-117.188;2023-03-14T07:22:42;99859.63;;;13.52;100.00
37848;BME280;23688;33.130;-117.188;2023-03-14T07:25:08;99851.88;;;13.54;100.00
37848;BME280;23688;33.130;-117.188;2023-03-14T07:27:38;99835.31;;;13.53;100.00
37848;BME280;23688;33.130;-117.188;2023-03-14T07:30:05;99837.00;;;13.51;100.00
37848;BME280;23688;33.130;-117.188;2023-03-14T07:32:31;99822.00;;;13.45;100.00
37848;BME280;23688;33.130;-117.188;2023-03-14T07:34:58;99831.72;;;13.49;100.00
37848;BME280;23688;33.130;-117.188;2023-03-14T07:37:24;99824.88;;;13.53;100.00
37848;BME280;23688;33.130;-117.188;2023-03-14T07:39:50;99797.56;;;13.43;100.00
37848;BME280;23688;33.130;-117.188;2023-03-14T07:42:16;99817.09;;;13.55;100.00
37848;BME280;23688;33.130;-117.188;2023-03-14T07:44:42;99803.72;;;13.44;100.00
37848;BME280;23688;33.130;-117.188;2023-03-14T07:47:09;99817.81;;;13.51;100.00
37848;BME280;23688;33.130;-117.188;2023-03-14T07:49:35;99810.84;;;13.49;100.00
37848;BME280;23688;33.130;-117.188;2023-03-14T07:52:02;99795.88;;;13.44;100.00
37848;BME280;23688;33.130;-117.188;2023-03-14T07:54:28;99806.34;;;13.45;100.00
37848;BME280;23688;33.130;-117.188;2023-03-14T07:56:55;99800.88;;;13.38;100.00
37848;BME280;23688;33.130;-117.188;2023-03-14T07:59:24;99788.50;;;13.32;100.00
37848;BME280;23688;33.130;-117.188;2023-03-14T08:01:50;99775.91;;;13.20;100.00
37848;BME280;23688;33.130;-117.188;2023-03-14T08:04:16;99800.06;;;13.39;100.00
37848;BME280;23688;33.130;-117.188;2023-03-14T08:06:43;99798.97;;;13.34;100.00
37848;BME280;23688;33.130;-117.188;2023-03-14T08:09:10;99784.75;;;13.25;100.00
37848;BME280;23688;33.130;-117.188;2023-03-14T08:11:36;99798.06;;;13.32;100.00
37848;BME280;23688;33.130;-117.188;2023-03-14T08:14:03;99801.44;;;13.29;100.00
37848;BME280;23688;33.130;-117.188;2023-03-14T08:16:29;99784.66;;;13.22;100.00
37848;BME280;23688;33.130;-117.188;2023-03-14T08:18:55;99798.78;;;13.27;100.00
37848;BME280;23688;33.130;-117.188;2023-03-14T08:21:22;99804.94;;;13.30;100.00
37848;BME280;23688;33.130;-117.188;2023-03-14T08:23:48;99800.50;;;13.27;100.00
37848;BME280;23688;33.130;-117.188;2023-03-14T08:26:14;99813.56;;;13.28;100.00
37848;BME280;23688;33.130;-117.188;2023-03-14T08:28:41;99804.81;;;13.26;100.00
37848;BME280;23688;33.130;-117.188;2023-03-14T08:31:07;99803.91;;;13.26;100.00
37848;BME280;23688;33.130;-117.188;2023-03-14T08:33:33;99789.16;;;13.26;100.00
37848;BME280;23688;33.130;-117.188;2023-03-14T08:36:00;99767.09;;;13.17;100.00
37848;BME280;23688;33.130;-117.188;2023-03-14T08:38:27;99757.38;;;13.13;100.00
37848;BME280;23688;33.130;-117.188;2023-03-14T08:41:01;99780.25;;;13.21;100.00
37848;BME280;23688;33.130;-117.188;2023-03-14T08:43:30;99773.03;;;13.13;100.00
37848;BME280;23688;33.130;-117.188;2023-03-14T08:46:01;99787.22;;;13.21;100.00
37848;BME280;23688;33.130;-117.188;2023-03-14T08:48:28;99791.47;;;13.19;100.00
37848;BME280;23688;33.130;-117.188;2023-03-14T08:50:56;99798.56;;;13.23;100.00
37848;BME280;23688;33.130;-117.188;2023-03-14T08:53:23;99787.97;;;13.18;100.00
37848;BME280;23688;33.130;-117.188;2023-03-14T08:55:53;99768.63;;;13.12;100.00
37848;BME280;23688;33.130;-117.188;2023-03-14T08:58:20;99783.66;;;13.19;100.00
37848;BME280;23688;33.130;-117.188;2023-03-14T09:00:47;99784.22;;;13.10;100.00
37848;BME280;23688;33.130;-117.188;2023-03-14T09:03:13;99799.00;;;13.10;100.00
37848;BME280;23688;33.130;-117.188;2023-03-14T09:05:40;99798.03;;;13.07;100.00
37848;BME280;23688;33.130;-117.188;2023-03-14T09:08:06;99778.50;;;12.96;100.00
37848;BME280;23688;33.130;-117.188;2023-03-14T09:10:33;99800.75;;;13.11;100.00
37848;BME280;23688;33.130;-117.188;2023-03-14T09:12:59;99789.44;;;13.10;100.00
37848;BME280;23688;33.130;-117.188;2023-03-14T09:15:25;99785.03;;;13.09;100.00
37848;BME280;23688;33.130;-117.188;2023-03-14T09:17:52;99784.25;;;13.12;100.00
37848;BME280;23688;33.130;-117.188;2023-03-14T09:20:19;99771.81;;;13.03;100.00
37848;BME280;23688;33.130;-117.188;2023-03-14T09:22:45;99772.00;;;13.09;100.00
37848;BME280;23688;33.130;-117.188;2023-03-14T09:25:11;99765.75;;;13.04;100.00
37848;BME280;23688;33.130;-117.188;2023-03-14T09:27:38;99772.84;;;13.08;100.00
37848;BME280;23688;33.130;-117.188;2023-03-14T09:30:05;99749.78;;;12.95;100.00
37848;BME280;23688;33.130;-117.188;2023-03-14T09:32:31;99746.53;;;13.00;100.00
37848;BME280;23688;33.130;-117.188;2023-03-14T09:34:58;99735.88;;;12.94;100.00
37848;BME280;23688;33.130;-117.188;2023-03-14T09:37:24;99744.56;;;12.95;100.00
37848;BME280;23688;33.130;-117.188;2023-03-14T09:39:51;99742.75;;;12.92;100.00
37848;BME280;23688;33.130;-117.188;2023-03-14T09:42:20;99737.38;;;12.88;100.00
37848;BME280;23688;33.130;-117.188;2023-03-14T09:44:57;99729.44;;;12.84;100.00
37848;BME280;23688;33.130;-117.188;2023-03-14T09:47:26;99716.25;;;12.80;100.00
37848;BME280;23688;33.130;-117.188;2023-03-14T09:49:53;99724.97;;;12.80;100.00
37848;BME280;23688;33.130;-117.188;2023-03-14T09:52:24;99733.69;;;12.82;100.00
37848;BME280;23688;33.130;-117.188;2023-03-14T09:55:16;99723.28;;;12.82;100.00
37848;BME280;23688;33.130;-117.188;2023-03-14T09:57:42;99717.19;;;12.82;100.00
37848;BME280;23688;33.130;-117.188;2023-03-14T10:00:21;99728.50;;;12.82;100.00
37848;BME280;23688;33.130;-117.188;2023-03-14T10:03:19;99719.88;;;12.83;100.00
37848;BME280;23688;33.130;-117.188;2023-03-14T10:05:47;99709.34;;;12.80;100.00
37848;BME280;23688;33.130;-117.188;2023-03-14T10:08:14;99715.53;;;12.84;100.00
37848;BME280;23688;33.130;-117.188;2023-03-14T10:10:40;99693.47;;;12.74;100.00
37848;BME280;23688;33.130;-117.188;2023-03-14T10:13:19;99688.25;;;12.74;100.00
37848;BME280;23688;33.130;-117.188;2023-03-14T10:15:52;99680.53;;;12.77;100.00
37848;BME280;23688;33.130;-117.188;2023-03-14T10:18:18;99678.72;;;12.75;100.00
37848;BME280;23688;33.130;-117.188;2023-03-14T10:20:48;99670.88;;;12.73;100.00
37848;BME280;23688;33.130;-117.188;2023-03-14T10:25:44;99647.00;;;12.61;100.00
37848;BME280;23688;33.130;-117.188;2023-03-14T10:28:29;99658.47;;;12.66;100.00
37848;BME280;23688;33.130;-117.188;2023-03-14T10:30:56;99647.81;;;12.60;100.00
37848;BME280;23688;33.130;-117.188;2023-03-14T10:33:26;99640.84;;;12.59;100.00
37848;BME280;23688;33.130;-117.188;2023-03-14T10:38:27;99617.41;;;12.59;100.00
37848;BME280;23688;33.130;-117.188;2023-03-14T10:40:54;99603.38;;;12.55;100.00
37848;BME280;23688;33.130;-117.188;2023-03-14T10:43:32;99629.03;;;12.69;100.00
37848;BME280;23688;33.130;-117.188;2023-03-14T10:46:16;99606.81;;;12.54;100.00
37848;BME280;23688;33.130;-117.188;2023-03-14T10:48:44;99639.44;;;12.69;100.00
37848;BME280;23688;33.130;-117.188;2023-03-14T10:51:25;99636.00;;;12.70;100.00
37848;BME280;23688;33.130;-117.188;2023-03-14T10:56:37;99620.38;;;12.70;100.00
37848;BME280;23688;33.130;-117.188;2023-03-14T10:59:10;99620.44;;;12.71;100.00
37848;BME280;23688;33.130;-117.188;2023-03-14T11:07:32;99611.34;;;12.60;100.00
37848;BME280;23688;33.130;-117.188;2023-03-14T11:15:54;99615.06;;;12.42;100.00
37848;BME280;23688;33.130;-117.188;2023-03-14T11:27:15;99632.44;;;12.68;100.00
37848;BME280;23688;33.130;-117.188;2023-03-14T11:35:26;99623.13;;;12.74;100.00
37848;BME280;23688;33.130;-117.188;2023-03-14T11:40:59;99599.38;;;12.65;100.00
37848;BME280;23688;33.130;-117.188;2023-03-14T11:43:38;99613.66;;;12.76;100.00
37848;BME280;23688;33.130;-117.188;2023-03-14T11:46:51;99607.72;;;12.80;100.00
37848;BME280;23688;33.130;-117.188;2023-03-14T11:52:00;99627.66;;;12.80;100.00
37848;BME280;23688;33.130;-117.188;2023-03-14T11:54:35;99626.06;;;12.83;100.00
37848;BME280;23688;33.130;-117.188;2023-03-14T11:57:13;99619.84;;;12.80;100.00
37848;BME280;23688;33.130;-117.188;2023-03-14T11:59:56;99624.28;;;12.82;100.00
37848;BME280;23688;33.130;-117.188;2023-03-14T12:10:27;99620.00;;;12.84;100.00
37848;BME280;23688;33.130;-117.188;2023-03-14T12:12:54;99636.41;;;12.82;100.00
37848;BME280;23688;33.130;-117.188;2023-03-14T12:15:21;99639.78;;;12.78;100.00
37848;BME280;23688;33.130;-117.188;2023-03-14T12:17:54;99639.66;;;12.75;100.00
37848;BME280;23688;33.130;-117.188;2023-03-14T12:20:23;99631.97;;;12.78;100.00
37848;BME280;23688;33.130;-117.188;2023-03-14T12:22:53;99637.97;;;12.77;100.00
37848;BME280;23688;33.130;-117.188;2023-03-14T12:25:23;99639.72;;;12.76;100.00
37848;BME280;23688;33.130;-117.188;2023-03-14T12:33:26;99644.84;;;12.75;100.00
37848;BME280;23688;33.130;-117.188;2023-03-14T12:36:03;99640.50;;;12.74;100.00
37848;BME280;23688;33.130;-117.188;2023-03-14T12:43:42;99643.00;;;12.71;100.00
37848;BME280;23688;33.130;-117.188;2023-03-14T12:48:48;99639.47;;;12.70;100.00
37848;BME280;23688;33.130;-117.188;2023-03-14T12:51:38;99640.09;;;12.63;100.00
37848;BME280;23688;33.130;-117.188;2023-03-14T12:59:56;99641.00;;;12.39;100.00
37848;BME280;23688;33.130;-117.188;2023-03-14T13:02:38;99638.06;;;12.30;100.00
37848;BME280;23688;33.130;-117.188;2023-03-14T13:05:21;99631.81;;;12.25;100.00
37848;BME280;23688;33.130;-117.188;2023-03-14T13:10:22;99641.09;;;12.18;100.00
37848;BME280;23688;33.130;-117.188;2023-03-14T13:13:02;99659.59;;;12.26;100.00
37848;BME280;23688;33.130;-117.188;2023-03-14T13:15:33;99659.56;;;12.25;100.00
37848;BME280;23688;33.130;-117.188;2023-03-14T13:18:07;99661.28;;;12.24;100.00
37848;BME280;23688;33.130;-117.188;2023-03-14T13:20:38;99668.91;;;12.19;100.00
37848;BME280;23688;33.130;-117.188;2023-03-14T13:23:23;99673.78;;;12.10;100.00
37848;BME280;23688;33.130;-117.188;2023-03-14T13:25:50;99675.31;;;12.05;100.00
37848;BME280;23688;33.130;-117.188;2023-03-14T13:28:16;99677.03;;;12.05;100.00
37848;BME280;23688;33.130;-117.188;2023-03-14T13:30:45;99676.00;;;12.01;100.00
37848;BME280;23688;33.130;-117.188;2023-03-14T13:33:20;99666.91;;;11.90;100.00
37848;BME280;23688;33.130;-117.188;2023-03-14T13:35:57;99668.63;;;11.89;100.00
37848;BME280;23688;33.130;-117.188;2023-03-14T13:38:26;99690.19;;;11.87;100.00
37848;BME280;23688;33.130;-117.188;2023-03-14T13:41:00;99687.38;;;11.82;100.00
37848;BME280;23688;33.130;-117.188;2023-03-14T13:43:31;99688.81;;;11.74;100.00
37848;BME280;23688;33.130;-117.188;2023-03-14T13:46:25;99690.38;;;11.70;100.00